Time;durP1;ratioP1;P1;durP2;ratioP2;P2;SDS_P1;SDS_P2;PMS_P1;PMS_P2;Temp;Humidity;BMP_temperature;BMP_pressure;BME280_temperature;BME280_humidity;BME280_pressure;Samples;Min_cycle;Max_cycle;Signal;HPM_P1;HPM_P2
2023/04/29 00:01:36;;;;;;;;;2.00;2.00;;;;;22.17;42.09;101062.28;5053605;28;45449;-72
2023/04/29 00:04:02;;;;;;;;;1.25;1.25;;;;;22.16;42.47;101057.88;5069890;27;64733;-72
2023/04/29 00:06:27;;;;;;;;;1.00;1.00;;;;;22.16;42.12;101057.88;5075609;27;45173;-72
2023/04/29 00:08:53;;;;;;;;;1.50;1.50;;;;;22.17;42.24;101056.09;5077597;27;45565;-72
2023/04/29 00:11:18;;;;;;;;;1.75;1.75;;;;;22.14;42.42;101049.16;5078754;27;48650;-72
2023/04/29 00:13:43;;;;;;;;;3.00;2.00;;;;;22.15;42.09;101045.53;5059970;28;66491;-72
2023/04/29 00:16:09;;;;;;;;;1.00;1.00;;;;;22.14;42.29;101043.81;5073128;27;45193;-72
2023/04/29 00:18:36;;;;;;;;;1.25;1.00;;;;;22.14;42.71;101049.16;5060902;28;45467;-72
2023/04/29 00:21:01;;;;;;;;;1.25;1.00;;;;;22.13;42.10;101046.59;5077598;28;45561;-72
2023/04/29 00:23:29;;;;;;;;;1.25;1.25;;;;;22.09;42.01;101045.13;5072379;27;47559;-72
2023/04/29 00:25:54;;;;;;;;;3.00;2.00;;;;;22.13;42.24;101050.13;5075724;27;45448;-72
2023/04/29 00:28:20;;;;;;;;;2.00;1.25;;;;;22.12;42.01;101044.91;5071939;27;45390;-72
2023/04/29 00:30:45;;;;;;;;;1.25;1.25;;;;;22.12;42.27;101042.25;5074479;28;45390;-72
2023/04/29 00:33:11;;;;;;;;;2.75;1.25;;;;;22.11;42.67;101041.38;5078835;27;53248;-72
2023/04/29 00:35:37;;;;;;;;;1.00;1.00;;;;;22.09;42.58;101031.78;5053674;28;45600;-72
2023/04/29 00:38:02;;;;;;;;;3.25;1.25;;;;;22.10;42.49;101031.69;5063679;28;45396;-72
2023/04/29 00:40:28;;;;;;;;;1.75;1.75;;;;;22.11;42.08;101035.19;5070750;27;45652;-72
2023/04/29 00:42:53;;;;;;;;;3.00;2.00;;;;;22.04;42.50;101026.75;5052412;28;60364;-72
2023/04/29 00:45:18;;;;;;;;;1.00;1.00;;;;;22.08;42.32;101036.28;5071399;27;45221;-72
2023/04/29 00:47:44;;;;;;;;;2.25;1.25;;;;;22.08;42.12;101033.59;5079713;27;53523;-72
2023/04/29 00:50:10;;;;;;;;;1.75;1.75;;;;;22.08;42.46;101024.75;5071962;27;45457;-72
2023/04/29 00:52:37;;;;;;;;;1.75;1.75;;;;;22.09;42.09;101035.28;5055680;28;48061;-72
2023/04/29 00:55:04;;;;;;;;;1.00;1.00;;;;;22.06;42.43;101027.53;5075411;28;48045;-72
2023/04/29 00:57:29;;;;;;;;;1.00;1.00;;;;;22.09;42.49;101026.47;5078104;28;45462;-72
2023/04/29 00:59:57;;;;;;;;;2.00;2.00;;;;;22.09;42.47;101029.13;5073540;28;68272;-72
2023/04/29 01:02:22;;;;;;;;;1.75;1.25;;;;;22.06;42.13;101019.53;5079858;28;45337;-72
2023/04/29 01:04:48;;;;;;;;;1.75;1.75;;;;;22.06;42.04;101022.22;5076560;27;45382;-72
2023/04/29 01:07:16;;;;;;;;;1.25;1.25;;;;;22.05;42.37;101023.16;5080069;27;45219;-72
2023/04/29 01:10:02;;;;;;;;;1.00;1.00;;;;;22.07;42.07;101023.06;5073025;27;45322;-72
2023/04/29 01:12:37;;;;;;;;;1.50;1.50;;;;;22.07;42.29;101023.06;5073238;28;47350;-72
2023/04/29 01:15:15;;;;;;;;;2.00;2.00;;;;;22.04;42.44;101026.75;5075603;27;45792;-72
2023/04/29 01:17:52;;;;;;;;;1.00;1.00;;;;;22.00;42.50;101022.63;5078517;27;45198;-72
2023/04/29 01:20:18;;;;;;;;;1.00;1.00;;;;;22.04;42.53;101023.25;5049084;28;45660;-72
2023/04/29 01:22:43;;;;;;;;;2.25;1.75;;;;;22.00;41.92;101015.47;5079738;27;45283;-72
2023/04/29 01:25:09;;;;;;;;;2.00;1.00;;;;;22.05;42.29;101022.31;5071626;27;45370;-72
2023/04/29 01:27:43;;;;;;;;;1.25;1.00;;;;;22.03;41.89;101019.75;5079663;27;45376;-72
2023/04/29 01:30:29;;;;;;;;;3.00;2.00;;;;;22.04;42.12;101023.25;5073753;28;45216;-72
2023/04/29 01:32:59;;;;;;;;;2.00;1.50;;;;;22.03;42.46;101018.88;5061261;28;47368;-72
2023/04/29 01:35:27;;;;;;;;;2.25;0.75;;;;;22.02;42.31;101018.03;5084451;27;45215;-72
2023/04/29 01:38:06;;;;;;;;;2.00;1.00;;;;;22.02;41.98;101023.38;5078478;28;45273;-72
2023/04/29 01:40:48;;;;;;;;;1.00;1.00;;;;;22.01;42.23;101029.69;5066452;28;45416;-72
2023/04/29 01:43:14;;;;;;;;;2.00;2.00;;;;;22.02;42.03;101026.03;5051756;28;46855;-72
2023/04/29 01:45:40;;;;;;;;;0.75;0.75;;;;;21.99;41.99;101026.25;5076978;28;45424;-72
2023/04/29 01:48:06;;;;;;;;;1.25;1.00;;;;;22.00;41.91;101023.47;5078231;28;45508;-72
2023/04/29 01:50:31;;;;;;;;;2.00;2.00;;;;;22.01;42.19;101024.34;5074105;27;45429;-72
2023/04/29 01:52:57;;;;;;;;;0.25;0.25;;;;;21.97;42.18;101020.16;5077991;28;45448;-72
2023/04/29 01:55:22;;;;;;;;;1.75;1.75;;;;;21.98;42.44;101020.06;5058197;28;45565;-72
2023/04/29 01:57:48;;;;;;;;;1.75;1.75;;;;;21.99;42.10;101027.13;5077974;27;60056;-72
2023/04/29 02:00:13;;;;;;;;;1.00;1.00;;;;;21.98;42.03;101025.41;5075065;27;66201;-72
2023/04/29 02:02:39;;;;;;;;;3.00;1.75;;;;;21.97;42.04;101021.03;5076421;28;46115;-72
2023/04/29 02:05:05;;;;;;;;;3.00;2.00;;;;;21.96;41.75;101019.31;5046357;28;45473;-72
2023/04/29 02:07:30;;;;;;;;;0.50;0.50;;;;;21.96;42.28;101019.31;5059164;28;54108;-72
2023/04/29 02:09:55;;;;;;;;;2.00;1.00;;;;;21.96;41.99;101018.47;5076027;27;64837;-72
2023/04/29 02:12:20;;;;;;;;;2.25;1.75;;;;;21.97;42.34;101028.16;5080013;27;55747;-72
2023/04/29 02:14:46;;;;;;;;;2.25;1.00;;;;;21.97;41.91;101017.50;5075894;27;57480;-72
2023/04/29 02:17:12;;;;;;;;;1.00;1.00;;;;;21.93;41.85;101011.53;5081099;27;45224;-72
2023/04/29 02:19:37;;;;;;;;;2.00;1.00;;;;;21.92;42.37;101011.66;5064798;27;45377;-72
2023/04/29 02:22:03;;;;;;;;;2.00;1.25;;;;;21.94;42.08;101018.59;5079588;28;60931;-72
2023/04/29 02:24:28;;;;;;;;;1.25;1.25;;;;;21.92;42.35;101014.31;5054407;28;45295;-72
2023/04/29 02:26:54;;;;;;;;;1.25;1.25;;;;;21.94;41.88;101023.06;5082764;27;60537;-72
2023/04/29 02:29:20;;;;;;;;;3.00;2.00;;;;;21.94;41.48;101031.06;5078691;27;45454;-72
2023/04/29 02:31:45;;;;;;;;;0.25;0.25;;;;;21.94;41.77;101029.25;5076831;27;47933;-72
2023/04/29 02:34:10;;;;;;;;;1.00;1.00;;;;;21.95;42.18;101035.41;5073444;27;45551;-72
2023/04/29 02:36:36;;;;;;;;;1.25;1.25;;;;;21.93;42.17;101032.84;5057608;27;45347;-72
2023/04/29 02:39:01;;;;;;;;;2.25;1.00;;;;;21.94;42.10;101033.72;5061939;28;45442;-72
2023/04/29 02:41:27;;;;;;;;;3.00;1.00;;;;;21.92;41.92;101030.28;5072619;27;46201;-72
2023/04/29 02:43:52;;;;;;;;;1.25;1.25;;;;;21.91;42.37;101034.78;5057007;28;45407;-72
2023/04/29 02:46:18;;;;;;;;;0.25;0.25;;;;;21.91;42.32;101033.94;5080866;27;45309;-72
2023/04/29 02:48:43;;;;;;;;;1.25;0.25;;;;;21.92;42.23;101031.16;5080083;27;45581;-72
2023/04/29 02:51:09;;;;;;;;;1.75;1.00;;;;;21.91;42.06;101029.44;5080473;28;47174;-72
2023/04/29 02:53:34;;;;;;;;;1.00;1.00;;;;;21.92;42.24;101030.28;5080388;27;45512;-72
2023/04/29 02:56:00;;;;;;;;;1.00;1.00;;;;;21.92;41.91;101025.84;5076955;28;45671;-72
2023/04/29 02:58:25;;;;;;;;;2.75;1.00;;;;;21.90;41.80;101029.56;5080736;28;47502;-72
2023/04/29 03:00:50;;;;;;;;;0.25;0.25;;;;;21.86;42.15;101022.75;5077900;27;59891;-72
2023/04/29 03:03:16;;;;;;;;;2.50;1.00;;;;;21.90;41.90;101026.88;5074187;27;45409;-72
2023/04/29 03:05:41;;;;;;;;;1.75;1.75;;;;;21.90;42.21;101033.09;5072510;27;67609;-72
2023/04/29 03:08:08;;;;;;;;;1.50;1.00;;;;;21.91;42.00;101036.59;5079745;27;64424;-73
2023/04/29 03:10:33;;;;;;;;;2.00;1.50;;;;;21.86;41.71;101031.59;5077597;27;45394;-72
2023/04/29 03:12:59;;;;;;;;;3.00;2.00;;;;;21.88;41.63;101029.66;5073684;27;45205;-72
2023/04/29 03:15:24;;;;;;;;;0.50;0.50;;;;;21.88;42.43;101026.16;5073142;28;58240;-72
2023/04/29 03:17:49;;;;;;;;;2.50;1.50;;;;;21.88;41.61;101032.31;5079186;28;65576;-72
2023/04/29 03:20:15;;;;;;;;;2.00;2.00;;;;;21.88;41.60;101034.16;5070671;28;73170;-72
2023/04/29 03:22:40;;;;;;;;;6.75;2.00;;;;;21.86;41.73;101036.91;5079393;28;45435;-72
2023/04/29 03:25:06;;;;;;;;;1.25;1.25;;;;;21.86;41.94;101044.06;5077205;27;60165;-72
2023/04/29 03:27:31;;;;;;;;;1.00;1.00;;;;;21.86;41.94;101042.25;5080035;27;45369;-72
2023/04/29 03:29:56;;;;;;;;;1.00;1.00;;;;;21.86;41.71;101042.25;5070093;27;69962;-72
2023/04/29 03:32:22;;;;;;;;;2.00;2.00;;;;;21.84;41.96;101046.81;5080913;27;57704;-72
2023/04/29 03:34:48;;;;;;;;;0.75;0.75;;;;;21.85;41.86;101050.34;5056231;27;45477;-72
2023/04/29 03:37:15;;;;;;;;;1.50;1.25;;;;;21.86;41.87;101052.06;5080054;27;45417;-72
2023/04/29 03:39:40;;;;;;;;;1.25;0.75;;;;;21.85;42.13;101053.00;5053331;28;48192;-72
2023/04/29 03:42:06;;;;;;;;;3.75;1.25;;;;;21.84;42.05;101053.97;5073661;27;45334;-72
2023/04/29 03:44:31;;;;;;;;;1.25;1.00;;;;;21.83;42.03;101049.59;5051477;28;60744;-72
2023/04/29 03:46:56;;;;;;;;;3.00;1.75;;;;;21.79;42.02;101048.97;5061687;27;73374;-72
2023/04/29 03:49:22;;;;;;;;;1.00;1.00;;;;;21.82;41.79;101062.06;5077908;27;46151;-72
2023/04/29 03:51:48;;;;;;;;;1.00;1.00;;;;;21.83;41.65;101063.75;5075399;27;45224;-72
2023/04/29 03:54:13;;;;;;;;;1.25;1.25;;;;;21.82;42.08;101063.91;5074103;27;48667;-72
2023/04/29 03:56:38;;;;;;;;;2.00;2.00;;;;;21.83;42.02;101063.75;5059915;28;45747;-72
2023/04/29 03:59:04;;;;;;;;;2.50;2.00;;;;;21.82;41.61;101070.06;5083129;27;64214;-72
2023/04/29 04:01:29;;;;;;;;;1.50;1.50;;;;;21.83;42.10;101069.09;5084315;27;45426;-72
2023/04/29 04:03:55;;;;;;;;;1.25;1.25;;;;;21.82;42.04;101074.56;5069245;28;69166;-72
2023/04/29 04:06:20;;;;;;;;;2.00;2.00;;;;;21.81;42.04;101068.34;5062505;28;45501;-72
2023/04/29 04:08:46;;;;;;;;;4.00;1.25;;;;;21.82;41.66;101071.88;5079484;27;46478;-72
2023/04/29 04:11:13;;;;;;;;;2.00;2.00;;;;;21.79;41.69;101076.44;5077933;27;58944;-72
2023/04/29 04:13:41;;;;;;;;;1.00;1.00;;;;;21.79;41.68;101081.78;5071447;27;45792;-72
2023/04/29 04:16:06;;;;;;;;;1.75;1.75;;;;;21.80;42.07;101080.81;5076346;27;45904;-72
2023/04/29 04:18:31;;;;;;;;;2.00;2.00;;;;;21.78;41.81;101074.75;5078271;27;76419;-72
2023/04/29 04:20:57;;;;;;;;;2.00;2.00;;;;;21.80;41.76;101082.66;5075226;27;45419;-72
2023/04/29 04:23:23;;;;;;;;;2.00;2.00;;;;;21.79;41.69;101084.44;5072830;27;45401;-72
2023/04/29 04:25:48;;;;;;;;;2.00;2.00;;;;;21.79;41.94;101086.25;5075044;28;45790;-72
2023/04/29 04:28:14;;;;;;;;;2.00;2.00;;;;;21.77;41.48;101086.34;5079090;27;45244;-72
2023/04/29 04:30:40;;;;;;;;;3.00;3.00;;;;;21.78;41.47;101089.91;5076652;27;45516;-72
2023/04/29 04:33:06;;;;;;;;;3.25;3.25;;;;;21.77;41.64;101090.84;5080427;27;45292;-72
2023/04/29 04:35:31;;;;;;;;;3.50;2.00;;;;;21.77;41.83;101088.19;5073954;28;45503;-72
2023/04/29 04:37:57;;;;;;;;;3.00;2.00;;;;;21.77;41.51;101089.03;5080374;27;45440;-72
2023/04/29 04:40:23;;;;;;;;;3.50;2.50;;;;;21.72;41.50;101087.63;5067343;27;45268;-72
2023/04/29 04:42:48;;;;;;;;;1.25;1.25;;;;;21.70;41.95;101086.91;5078363;27;45341;-72
2023/04/29 04:45:13;;;;;;;;;2.25;2.25;;;;;21.74;41.74;101097.25;5066974;27;46320;-72
2023/04/29 04:47:40;;;;;;;;;3.00;3.00;;;;;21.75;41.61;101098.94;5078565;27;46478;-72
2023/04/29 04:50:07;;;;;;;;;3.00;2.25;;;;;21.74;42.07;101107.91;5070177;28;45636;-72
2023/04/29 04:52:32;;;;;;;;;5.00;3.00;;;;;21.73;41.50;101106.19;5073008;27;45262;-72
2023/04/29 04:54:57;;;;;;;;;3.00;2.50;;;;;21.72;41.91;101104.47;5051430;27;45431;-71
2023/04/29 04:57:23;;;;;;;;;3.00;3.00;;;;;21.74;41.93;101118.56;5078258;27;70684;-71
2023/04/29 04:59:48;;;;;;;;;2.25;1.75;;;;;21.72;41.91;101116.94;5076805;27;45453;-71
2023/04/29 05:02:13;;;;;;;;;2.25;2.25;;;;;21.75;41.93;101119.41;5078080;28;61209;-71
2023/04/29 05:04:39;;;;;;;;;4.00;3.00;;;;;21.74;41.37;101125.69;5065493;28;65388;-71
2023/04/29 05:07:04;;;;;;;;;2.00;2.00;;;;;21.70;41.48;101121.53;5070140;28;45457;-71
2023/04/29 05:09:30;;;;;;;;;2.00;2.00;;;;;21.70;41.76;101127.69;5076351;27;45492;-71
2023/04/29 05:11:55;;;;;;;;;4.75;3.00;;;;;21.70;41.71;101119.69;5060795;28;45467;-71
2023/04/29 05:14:20;;;;;;;;;3.00;3.00;;;;;21.72;42.03;101132.91;5058187;28;45351;-71
2023/04/29 05:16:46;;;;;;;;;2.50;2.00;;;;;21.71;41.86;101136.53;5061238;28;53053;-71
2023/04/29 05:19:11;;;;;;;;;3.00;3.00;;;;;21.72;41.95;101140.91;5075684;27;68378;-71
2023/04/29 05:21:37;;;;;;;;;6.25;4.00;;;;;21.70;41.30;101141.00;5076230;27;45424;-71
2023/04/29 05:24:02;;;;;;;;;4.25;3.25;;;;;21.70;41.96;101148.16;5059380;28;45474;-71
2023/04/29 05:26:27;;;;;;;;;3.75;3.00;;;;;21.70;41.46;101145.50;5057257;28;48100;-71
2023/04/29 05:28:54;;;;;;;;;3.00;3.00;;;;;21.69;41.51;101154.44;5073810;28;45428;-71
2023/04/29 05:31:19;;;;;;;;;4.50;4.00;;;;;21.69;41.59;101155.31;5078935;27;45546;-71
2023/04/29 05:33:45;;;;;;;;;6.50;3.00;;;;;21.70;41.63;101161.47;5070449;28;45611;-72
2023/04/29 05:36:10;;;;;;;;;3.25;3.00;;;;;21.69;41.36;101162.44;5077216;28;46308;-71
2023/04/29 05:38:35;;;;;;;;;5.25;3.50;;;;;21.66;42.09;101160.84;5074521;28;48838;-71
2023/04/29 05:41:02;;;;;;;;;5.00;5.00;;;;;21.68;41.85;101174.91;5052560;28;45515;-71
2023/04/29 05:43:28;;;;;;;;;3.50;3.50;;;;;21.68;41.99;101182.03;5078101;27;45278;-71
2023/04/29 05:45:53;;;;;;;;;4.00;3.00;;;;;21.67;41.45;101180.31;5077068;27;45420;-71
2023/04/29 05:48:18;;;;;;;;;5.00;4.67;;;;;21.69;41.30;101186.41;5079164;27;45240;-71
2023/04/29 05:50:44;;;;;;;;;3.50;3.50;;;;;21.69;41.57;101189.06;5077222;27;45576;-71
2023/04/29 05:53:10;;;;;;;;;4.25;3.50;;;;;21.67;41.91;101183.84;5053645;28;45744;-71
2023/04/29 05:55:35;;;;;;;;;4.00;4.00;;;;;21.68;41.97;101190.88;5075859;28;45832;-71
2023/04/29 05:58:00;;;;;;;;;6.00;3.00;;;;;21.65;41.38;101191.06;5082330;27;45221;-71
2023/04/29 06:00:26;;;;;;;;;3.50;3.00;;;;;21.66;41.44;101186.63;5079065;28;45500;-71
2023/04/29 06:02:51;;;;;;;;;4.00;4.00;;;;;21.66;41.28;101197.28;5080822;27;58682;-71
2023/04/29 06:05:16;;;;;;;;;5.75;3.75;;;;;21.68;41.41;101195.38;5077010;27;46191;-71
2023/04/29 06:07:42;;;;;;;;;4.00;4.00;;;;;21.66;41.92;101202.59;5077130;28;71808;-71
2023/04/29 06:10:09;;;;;;;;;3.00;3.00;;;;;21.66;41.52;101197.28;5074712;27;45429;-71
2023/04/29 06:12:34;;;;;;;;;6.00;3.50;;;;;21.66;41.70;101202.59;5081470;27;45491;-71
2023/04/29 06:15:00;;;;;;;;;3.50;3.50;;;;;21.66;41.47;101199.94;5058800;27;57539;-71
2023/04/29 06:17:28;;;;;;;;;4.50;3.75;;;;;21.67;41.75;101212.28;5062132;28;45256;-71
2023/04/29 06:19:53;;;;;;;;;4.00;4.00;;;;;21.66;41.93;101213.25;5078905;27;45235;-71
2023/04/29 06:22:18;;;;;;;;;7.25;4.25;;;;;21.64;41.86;101200.03;5081291;27;45252;-71
2023/04/29 06:24:44;;;;;;;;;4.00;3.75;;;;;21.66;41.69;101205.28;5077229;27;61416;-71
2023/04/29 06:27:09;;;;;;;;;3.75;3.50;;;;;21.66;41.86;101210.59;5078179;27;45193;-71
2023/04/29 06:29:35;;;;;;;;;3.00;3.00;;;;;21.66;41.35;101215.94;5077256;27;45386;-71
2023/04/29 06:32:00;;;;;;;;;4.00;3.00;;;;;21.63;41.50;101216.97;5080363;27;45334;-71
2023/04/29 06:34:25;;;;;;;;;4.25;3.25;;;;;21.61;41.66;101217.06;5080017;27;46273;-71
2023/04/29 06:36:51;;;;;;;;;3.00;3.00;;;;;21.65;41.52;101216.88;5081252;27;60006;-71
2023/04/29 06:39:16;;;;;;;;;3.25;3.00;;;;;21.64;41.96;101217.81;5054970;28;52087;-71
2023/04/29 06:41:42;;;;;;;;;4.00;4.00;;;;;21.65;41.52;101224.84;5073753;27;45425;-71
2023/04/29 06:44:07;;;;;;;;;8.00;4.00;;;;;21.63;41.27;101216.97;5078427;27;45528;-71
2023/04/29 06:46:33;;;;;;;;;3.75;3.75;;;;;21.64;41.77;101212.47;5079398;27;45623;-71
2023/04/29 06:48:58;;;;;;;;;4.00;4.00;;;;;21.63;41.55;101219.63;5078291;27;56279;-71
2023/04/29 06:51:23;;;;;;;;;4.00;4.00;;;;;21.62;41.34;101220.59;5080499;28;45428;-71
2023/04/29 06:53:49;;;;;;;;;5.25;4.00;;;;;21.63;41.32;101213.44;5074274;28;47419;-71
2023/04/29 06:56:14;;;;;;;;;2.00;2.00;;;;;21.62;41.63;101223.25;5077044;27;45296;-71
2023/04/29 06:58:40;;;;;;;;;6.75;4.00;;;;;21.64;41.60;101225.81;5073227;27;55950;-71
2023/04/29 07:01:07;;;;;;;;;4.75;3.00;;;;;21.62;41.45;101231.25;5055984;27;45323;-71
2023/04/29 07:03:32;;;;;;;;;5.25;4.75;;;;;21.63;41.78;101232.09;5056403;27;47839;-71
2023/04/29 07:05:57;;;;;;;;;5.00;5.00;;;;;21.61;41.81;101237.53;5074978;27;55755;-71
2023/04/29 07:08:23;;;;;;;;;5.75;3.75;;;;;21.61;41.43;101240.19;5072827;27;56125;-71
2023/04/29 07:10:55;;;;;;;;;6.50;3.50;;;;;21.63;41.40;101246.25;5075296;27;69892;-71
2023/04/29 07:13:20;;;;;;;;;3.50;3.50;;;;;21.63;41.58;101245.41;5085937;27;46434;-71
2023/04/29 07:15:46;;;;;;;;;4.00;2.50;;;;;21.61;41.34;101242.84;5057549;27;45308;-71
2023/04/29 07:18:11;;;;;;;;;4.25;3.00;;;;;21.61;41.79;101251.69;5073491;27;45446;-71
2023/04/29 07:20:37;;;;;;;;;5.50;4.00;;;;;21.57;41.81;101246.69;5075822;27;67225;-71
2023/04/29 07:23:02;;;;;;;;;3.75;3.75;;;;;21.61;41.58;101256.16;5080622;27;66577;-71
2023/04/29 07:25:28;;;;;;;;;4.75;4.00;;;;;21.60;41.70;101254.44;5077152;27;68158;-71
2023/04/29 07:27:53;;;;;;;;;7.50;4.00;;;;;21.60;41.39;101258.00;5080078;27;45275;-71
2023/04/29 07:30:19;;;;;;;;;5.00;5.00;;;;;21.60;41.76;101257.09;5054745;28;45509;-71
2023/04/29 07:32:44;;;;;;;;;3.50;3.50;;;;;21.57;41.61;101255.50;5076365;28;47478;-71
2023/04/29 07:35:09;;;;;;;;;4.25;4.25;;;;;21.58;41.45;101261.69;5076062;27;50359;-71
2023/04/29 07:37:35;;;;;;;;;5.75;4.00;;;;;21.59;41.64;101264.25;5080224;27;45372;-71
2023/04/29 07:40:00;;;;;;;;;8.75;4.25;;;;;21.58;41.67;101264.34;5075293;27;61429;-71
2023/04/29 07:42:26;;;;;;;;;5.00;3.50;;;;;21.54;41.35;101266.34;5075843;27;46268;-71
2023/04/29 07:44:51;;;;;;;;;5.75;4.25;;;;;21.56;41.45;101272.44;5077268;27;45558;-71
2023/04/29 07:47:17;;;;;;;;;3.50;3.50;;;;;21.56;41.27;101267.09;5080970;27;52347;-71
2023/04/29 07:49:42;;;;;;;;;5.00;4.00;;;;;21.55;41.54;101261.91;5053594;28;45432;-71
2023/04/29 07:52:10;;;;;;;;;6.25;4.50;;;;;21.56;41.84;101263.59;5056380;28;46125;-71
2023/04/29 07:54:36;;;;;;;;;7.75;5.00;;;;;21.55;41.57;101268.09;5052139;27;45288;-71
2023/04/29 07:57:03;;;;;;;;;5.50;5.00;;;;;21.55;41.66;101280.56;5079518;27;45588;-71
2023/04/29 07:59:29;;;;;;;;;6.00;5.00;;;;;21.56;41.93;101276.91;5059492;28;45441;-72
2023/04/29 08:01:54;;;;;;;;;4.00;3.50;;;;;21.56;41.49;101269.78;5080672;27;47007;-71
2023/04/29 08:04:20;;;;;;;;;5.00;5.00;;;;;21.55;41.34;101269.91;5075834;27;45765;-71
2023/04/29 08:06:45;;;;;;;;;5.75;3.75;;;;;21.56;41.53;101280.44;5078659;28;62659;-71
2023/04/29 08:09:11;;;;;;;;;5.00;4.25;;;;;21.54;41.16;101269.03;5075759;27;45352;-71
2023/04/29 08:11:36;;;;;;;;;3.00;3.00;;;;;21.54;41.77;101273.50;5078336;28;46576;-71
2023/04/29 08:14:01;;;;;;;;;5.50;4.00;;;;;21.55;41.76;101275.22;5078298;27;57665;-71
2023/04/29 08:16:27;;;;;;;;;4.25;4.00;;;;;21.55;41.79;101276.06;5062174;28;45433;-71
2023/04/29 08:18:53;;;;;;;;;4.00;4.00;;;;;21.54;41.76;101277.00;5053997;28;45631;-71
2023/04/29 08:21:18;;;;;;;;;7.25;5.00;;;;;21.56;41.39;101276.91;5056850;28;45470;-71
2023/04/29 08:23:44;;;;;;;;;6.50;4.50;;;;;21.54;41.89;101279.69;5072236;28;45326;-71
2023/04/29 08:26:11;;;;;;;;;6.25;5.00;;;;;21.56;41.84;101280.44;5079178;28;45480;-73
2023/04/29 08:28:37;;;;;;;;;4.00;4.00;;;;;21.54;41.76;101276.16;5062336;28;45593;-71
2023/04/29 08:31:04;;;;;;;;;5.00;5.00;;;;;21.55;41.46;101280.56;5076325;27;45374;-71
2023/04/29 08:33:30;;;;;;;;;6.50;5.50;;;;;21.56;41.41;101274.25;5079080;28;45823;-71
2023/04/29 08:35:59;;;;;;;;;4.75;4.75;;;;;21.54;41.77;101281.50;5054405;28;45422;-71
2023/04/29 08:38:24;;;;;;;;;7.00;5.00;;;;;21.56;41.42;101283.09;5056801;28;45355;-71
2023/04/29 08:40:50;;;;;;;;;6.25;4.00;;;;;21.56;41.37;101283.09;5068527;27;47674;-71
2023/04/29 08:43:15;;;;;;;;;5.00;4.50;;;;;21.56;41.59;101287.56;5078207;27;69642;-71
2023/04/29 08:45:42;;;;;;;;;5.00;5.00;;;;;21.56;41.39;101287.56;5057237;28;45318;-71
2023/04/29 08:48:07;;;;;;;;;5.75;4.50;;;;;21.54;41.28;101282.34;5077787;27;45681;-71
2023/04/29 08:50:39;;;;;;;;;5.75;5.75;;;;;21.54;41.33;101284.16;5076783;28;46197;-71
2023/04/29 08:53:06;;;;;;;;;6.00;5.50;;;;;21.53;41.95;101279.78;5078851;27;45326;-71
2023/04/29 08:55:34;;;;;;;;;5.00;4.50;;;;;21.55;41.76;101289.38;5057510;28;45305;-71
2023/04/29 08:58:01;;;;;;;;;10.00;5.00;;;;;21.56;41.60;101291.06;5078511;27;45549;-71
2023/04/29 09:00:26;;;;;;;;;6.75;5.00;;;;;21.55;41.68;101289.38;5077407;27;46243;-71
2023/04/29 09:02:55;;;;;;;;;6.75;5.25;;;;;21.56;41.41;101292.91;5076026;27;57748;-71
2023/04/29 09:05:21;;;;;;;;;10.25;7.00;;;;;21.56;41.51;101296.41;5070234;28;45540;-71
2023/04/29 09:07:46;;;;;;;;;6.50;5.00;;;;;21.55;41.39;101301.84;5073986;27;72166;-71
2023/04/29 09:10:12;;;;;;;;;9.00;7.00;;;;;21.57;41.36;101303.47;5070058;28;45335;-71
2023/04/29 09:12:37;;;;;;;;;6.75;6.00;;;;;21.54;41.62;101298.31;5077145;28;45418;-71
2023/04/29 09:15:03;;;;;;;;;5.25;5.25;;;;;21.54;41.64;101302.81;5055476;28;63537;-71
2023/04/29 09:17:38;;;;;;;;;10.25;7.00;;;;;21.56;41.25;101304.41;5059112;28;45634;-71
2023/04/29 09:20:23;;;;;;;;;7.25;7.25;;;;;21.56;41.66;101306.22;5073859;27;46672;-71
2023/04/29 09:22:53;;;;;;;;;6.50;4.50;;;;;21.53;41.46;101309.94;5069655;27;45372;-71
2023/04/29 09:25:19;;;;;;;;;7.00;5.75;;;;;21.56;41.41;101311.53;5084939;27;45673;-71
2023/04/29 09:27:45;;;;;;;;;9.00;7.25;;;;;21.56;41.41;101309.72;5075036;28;45364;-71
2023/04/29 09:30:12;;;;;;;;;7.00;6.00;;;;;21.56;41.22;101315.06;5074222;27;45504;-71
2023/04/29 09:32:38;;;;;;;;;8.75;7.75;;;;;21.56;41.83;101314.19;5071293;28;45987;-71
2023/04/29 09:35:24;;;;;;;;;9.25;6.75;;;;;21.55;41.51;101315.19;5074824;27;45383;-71
2023/04/29 09:37:49;;;;;;;;;7.00;7.00;;;;;21.55;41.69;101317.84;5075341;27;45550;-71
2023/04/29 09:40:31;;;;;;;;;6.50;6.50;;;;;21.56;41.30;101324.84;5075501;28;47292;-71
2023/04/29 09:42:57;;;;;;;;;6.75;5.25;;;;;21.56;41.61;101328.38;5052589;28;45529;-71
2023/04/29 09:45:36;;;;;;;;;8.25;7.00;;;;;21.55;41.79;101320.50;5072428;28;45417;-71
2023/04/29 09:48:06;;;;;;;;;6.75;6.25;;;;;21.57;41.54;101318.59;5076566;27;45271;-71
2023/04/29 09:50:32;;;;;;;;;6.50;6.50;;;;;21.56;41.57;101324.84;5072750;28;45558;-71
2023/04/29 09:52:58;;;;;;;;;9.50;8.00;;;;;21.54;41.61;101316.97;5069704;27;45315;-73
2023/04/29 09:55:23;;;;;;;;;7.50;6.00;;;;;21.55;41.66;101321.34;5068472;28;45414;-73
2023/04/29 09:57:48;;;;;;;;;6.25;6.25;;;;;21.55;41.22;101329.34;5075179;28;62250;-71
2023/04/29 10:00:14;;;;;;;;;11.25;8.75;;;;;21.55;41.34;101329.34;5065869;28;74141;-71
2023/04/29 10:02:45;;;;;;;;;10.50;7.75;;;;;21.53;41.50;101325.91;5051888;28;45324;-71
2023/04/29 10:05:13;;;;;;;;;9.75;8.00;;;;;21.56;41.59;101328.38;5073738;28;45313;-71
2023/04/29 10:07:39;;;;;;;;;11.00;8.00;;;;;21.56;41.49;101324.84;5074826;28;45338;-71
2023/04/29 10:10:06;;;;;;;;;9.00;8.25;;;;;21.55;41.55;101320.50;5053307;28;47190;-71
2023/04/29 10:12:34;;;;;;;;;12.50;7.75;;;;;21.55;41.51;101317.84;5078903;27;45701;-71
2023/04/29 10:15:03;;;;;;;;;7.25;7.25;;;;;21.56;41.53;101320.38;5054705;28;45539;-71
2023/04/29 10:17:36;;;;;;;;;9.75;8.25;;;;;21.56;41.58;101323.03;5072163;28;45398;-71
2023/04/29 10:20:06;;;;;;;;;10.00;8.25;;;;;21.54;41.39;101319.63;5071299;27;45425;-71
2023/04/29 10:22:39;;;;;;;;;7.75;6.25;;;;;21.56;41.19;101319.53;5074273;28;45377;-71
2023/04/29 10:25:05;;;;;;;;;7.50;6.75;;;;;21.55;41.34;101318.69;5061848;28;45312;-71
2023/04/29 10:27:32;;;;;;;;;12.00;10.00;;;;;21.56;41.54;101322.19;5071875;27;45619;-71
2023/04/29 10:29:59;;;;;;;;;8.75;6.25;;;;;21.55;41.46;101324.00;5074028;28;46218;-71
2023/04/29 10:32:26;;;;;;;;;8.75;8.75;;;;;21.54;41.39;101316.13;5069100;27;45412;-71
2023/04/29 10:34:54;;;;;;;;;8.25;8.00;;;;;21.55;41.58;101326.69;5074126;27;45320;-71
2023/04/29 10:37:20;;;;;;;;;10.00;8.00;;;;;21.56;41.10;101325.69;5081116;27;45188;-71
2023/04/29 10:40:10;;;;;;;;;10.25;9.50;;;;;21.56;41.04;101323.03;5059528;28;47162;-71
2023/04/29 10:42:42;;;;;;;;;12.50;10.50;;;;;21.56;41.29;101325.69;5057678;27;45787;-71
2023/04/29 10:45:34;;;;;;;;;9.25;7.25;;;;;21.57;41.02;101334.56;5080326;27;45439;-71
2023/04/29 10:48:07;;;;;;;;;8.25;7.00;;;;;21.56;41.41;101333.69;5084169;27;45613;-71
2023/04/29 10:50:38;;;;;;;;;13.00;8.75;;;;;21.57;41.57;101337.22;5078612;27;46473;-71
2023/04/29 10:53:04;;;;;;;;;10.75;8.50;;;;;21.55;41.40;101332.00;5074921;27;45902;-71
2023/04/29 10:55:30;;;;;;;;;8.75;8.75;;;;;21.56;41.41;101332.84;5075985;27;45335;-71
2023/04/29 10:57:56;;;;;;;;;9.75;8.25;;;;;21.56;41.41;101331.03;5060693;28;45527;-71
2023/04/29 11:00:25;;;;;;;;;8.50;7.00;;;;;21.56;40.92;101327.53;5067525;27;45526;-71
2023/04/29 11:02:53;;;;;;;;;10.00;10.00;;;;;21.56;41.37;101328.38;5072956;27;45740;-71
2023/04/29 11:05:31;;;;;;;;;8.50;7.00;;;;;21.56;41.30;101330.19;5077373;27;45449;-71
2023/04/29 11:08:22;;;;;;;;;12.50;9.50;;;;;21.57;41.05;101334.56;5057140;28;45887;-71
2023/04/29 11:10:51;;;;;;;;;10.00;8.00;;;;;21.58;41.35;101328.28;5052947;28;46731;-71
2023/04/29 11:13:28;;;;;;;;;9.75;8.00;;;;;21.56;41.29;101328.38;5068738;27;45438;-71
2023/04/29 11:16:05;;;;;;;;;9.00;7.50;;;;;21.56;41.20;101327.53;5077020;27;45469;-71
2023/04/29 11:18:31;;;;;;;;;7.00;7.00;;;;;21.56;40.98;101333.69;5056431;28;45401;-71
2023/04/29 11:21:05;;;;;;;;;8.00;7.00;;;;;21.57;41.15;101330.09;5075701;27;46544;-71
2023/04/29 11:23:35;;;;;;;;;10.25;9.25;;;;;21.56;40.93;101324.84;5074607;27;45424;-71